sensor_id;sensor_type;location;lat;lon;timestamp;P1;durP1;ratioP1;P2;durP2;ratioP2
37483;SDS011;23337;52.212;9.926;2024-03-22T00:00:16;26.73;;;19.97;;
37483;SDS011;23337;52.212;9.926;2024-03-22T00:02:42;24.80;;;19.33;;
37483;SDS011;23337;52.212;9.926;2024-03-22T00:05:09;28.03;;;20.80;;
37483;SDS011;23337;52.212;9.926;2024-03-22T00:07:36;26.17;;;20.00;;
37483;SDS011;23337;52.212;9.926;2024-03-22T00:10:03;29.53;;;20.63;;
37483;SDS011;23337;52.212;9.926;2024-03-22T00:12:29;32.03;;;21.60;;
37483;SDS011;23337;52.212;9.926;2024-03-22T00:14:55;31.87;;;21.80;;
37483;SDS011;23337;52.212;9.926;2024-03-22T00:17:21;29.13;;;21.03;;
37483;SDS011;23337;52.212;9.926;2024-03-22T00:19:47;31.43;;;22.13;;
37483;SDS011;23337;52.212;9.926;2024-03-22T00:22:13;30.83;;;22.23;;
37483;SDS011;23337;52.212;9.926;2024-03-22T00:24:40;31.63;;;22.53;;
37483;SDS011;23337;52.212;9.926;2024-03-22T00:27:06;32.00;;;23.60;;
37483;SDS011;23337;52.212;9.926;2024-03-22T00:29:32;30.80;;;23.00;;
37483;SDS011;23337;52.212;9.926;2024-03-22T00:31:58;34.37;;;24.17;;
37483;SDS011;23337;52.212;9.926;2024-03-22T00:34:25;31.67;;;23.87;;
37483;SDS011;23337;52.212;9.926;2024-03-22T00:36:51;30.50;;;23.23;;
37483;SDS011;23337;52.212;9.926;2024-03-22T00:39:17;30.73;;;22.73;;
37483;SDS011;23337;52.212;9.926;2024-03-22T00:41:42;32.73;;;24.17;;
37483;SDS011;23337;52.212;9.926;2024-03-22T00:44:08;33.23;;;25.10;;
37483;SDS011;23337;52.212;9.926;2024-03-22T00:46:34;34.50;;;25.33;;
37483;SDS011;23337;52.212;9.926;2024-03-22T00:49:01;36.27;;;25.37;;
37483;SDS011;23337;52.212;9.926;2024-03-22T00:51:27;35.00;;;26.43;;
37483;SDS011;23337;52.212;9.926;2024-03-22T00:53:53;40.97;;;27.03;;
37483;SDS011;23337;52.212;9.926;2024-03-22T00:56:19;33.47;;;25.60;;
37483;SDS011;23337;52.212;9.926;2024-03-22T00:58:45;44.27;;;28.80;;
37483;SDS011;23337;52.212;9.926;2024-03-22T01:01:11;37.60;;;27.27;;
37483;SDS011;23337;52.212;9.926;2024-03-22T01:03:38;41.90;;;30.43;;
37483;SDS011;23337;52.212;9.926;2024-03-22T01:06:04;43.07;;;29.87;;
37483;SDS011;23337;52.212;9.926;2024-03-22T01:08:30;42.77;;;30.23;;
37483;SDS011;23337;52.212;9.926;2024-03-22T01:10:56;45.67;;;31.97;;
37483;SDS011;23337;52.212;9.926;2024-03-22T01:13:22;42.97;;;30.90;;
37483;SDS011;23337;52.212;9.926;2024-03-22T01:15:48;41.57;;;29.37;;
37483;SDS011;23337;52.212;9.926;2024-03-22T01:18:14;44.13;;;30.13;;
37483;SDS011;23337;52.212;9.926;2024-03-22T01:20:40;45.03;;;32.17;;
37483;SDS011;23337;52.212;9.926;2024-03-22T01:23:07;47.33;;;31.77;;
37483;SDS011;23337;52.212;9.926;2024-03-22T01:25:33;46.83;;;31.57;;
37483;SDS011;23337;52.212;9.926;2024-03-22T01:27:59;44.40;;;31.17;;
37483;SDS011;23337;52.212;9.926;2024-03-22T01:30:25;41.70;;;30.80;;
37483;SDS011;23337;52.212;9.926;2024-03-22T01:32:54;47.73;;;31.10;;
37483;SDS011;23337;52.212;9.926;2024-03-22T01:35:20;48.53;;;32.87;;
37483;SDS011;23337;52.212;9.926;2024-03-22T01:37:46;47.63;;;31.43;;
37483;SDS011;23337;52.212;9.926;2024-03-22T01:40:13;48.80;;;32.10;;
37483;SDS011;23337;52.212;9.926;2024-03-22T01:42:39;48.37;;;32.90;;
37483;SDS011;23337;52.212;9.926;2024-03-22T01:45:05;44.37;;;30.97;;
37483;SDS011;23337;52.212;9.926;2024-03-22T01:47:31;45.43;;;30.17;;
37483;SDS011;23337;52.212;9.926;2024-03-22T01:49:57;41.17;;;30.97;;
37483;SDS011;23337;52.212;9.926;2024-03-22T01:52:24;46.77;;;32.07;;
37483;SDS011;23337;52.212;9.926;2024-03-22T01:54:50;42.90;;;30.27;;
37483;SDS011;23337;52.212;9.926;2024-03-22T01:57:16;42.53;;;28.80;;
37483;SDS011;23337;52.212;9.926;2024-03-22T01:59:42;42.27;;;29.67;;
37483;SDS011;23337;52.212;9.926;2024-03-22T02:02:08;45.10;;;30.97;;
37483;SDS011;23337;52.212;9.926;2024-03-22T02:04:36;45.63;;;32.00;;
37483;SDS011;23337;52.212;9.926;2024-03-22T02:07:02;43.67;;;31.13;;
37483;SDS011;23337;52.212;9.926;2024-03-22T02:09:28;47.47;;;32.27;;
37483;SDS011;23337;52.212;9.926;2024-03-22T02:11:54;48.93;;;32.40;;
37483;SDS011;23337;52.212;9.926;2024-03-22T02:14:20;45.53;;;31.90;;
37483;SDS011;23337;52.212;9.926;2024-03-22T02:16:46;46.20;;;33.03;;
37483;SDS011;23337;52.212;9.926;2024-03-22T02:19:12;49.30;;;33.37;;
37483;SDS011;23337;52.212;9.926;2024-03-22T02:21:38;46.20;;;31.80;;
37483;SDS011;23337;52.212;9.926;2024-03-22T02:24:04;47.50;;;33.30;;
37483;SDS011;23337;52.212;9.926;2024-03-22T02:26:30;46.60;;;32.13;;
37483;SDS011;23337;52.212;9.926;2024-03-22T02:28:56;46.90;;;31.57;;
37483;SDS011;23337;52.212;9.926;2024-03-22T02:31:22;50.87;;;34.03;;
37483;SDS011;23337;52.212;9.926;2024-03-22T02:33:50;45.43;;;31.50;;
37483;SDS011;23337;52.212;9.926;2024-03-22T02:36:16;47.93;;;33.27;;
37483;SDS011;23337;52.212;9.926;2024-03-22T02:38:42;49.40;;;33.47;;
37483;SDS011;23337;52.212;9.926;2024-03-22T02:41:08;49.37;;;33.00;;
37483;SDS011;23337;52.212;9.926;2024-03-22T02:43:34;47.03;;;30.93;;
37483;SDS011;23337;52.212;9.926;2024-03-22T02:46:00;51.77;;;32.60;;
37483;SDS011;23337;52.212;9.926;2024-03-22T02:48:26;47.73;;;32.30;;
37483;SDS011;23337;52.212;9.926;2024-03-22T02:50:55;45.80;;;31.17;;
37483;SDS011;23337;52.212;9.926;2024-03-22T02:53:21;48.90;;;31.63;;
37483;SDS011;23337;52.212;9.926;2024-03-22T02:55:47;47.30;;;30.93;;
37483;SDS011;23337;52.212;9.926;2024-03-22T02:58:13;47.57;;;31.40;;
37483;SDS011;23337;52.212;9.926;2024-03-22T03:00:39;52.73;;;34.27;;
37483;SDS011;23337;52.212;9.926;2024-03-22T03:03:06;47.30;;;31.23;;
37483;SDS011;23337;52.212;9.926;2024-03-22T03:05:32;46.33;;;30.90;;
37483;SDS011;23337;52.212;9.926;2024-03-22T03:07:58;46.47;;;32.93;;
37483;SDS011;23337;52.212;9.926;2024-03-22T03:10:24;48.60;;;30.47;;
37483;SDS011;23337;52.212;9.926;2024-03-22T03:12:50;46.90;;;31.77;;
37483;SDS011;23337;52.212;9.926;2024-03-22T03:15:17;44.90;;;29.80;;
37483;SDS011;23337;52.212;9.926;2024-03-22T03:17:43;47.43;;;30.17;;
37483;SDS011;23337;52.212;9.926;2024-03-22T03:20:09;41.23;;;29.43;;
37483;SDS011;23337;52.212;9.926;2024-03-22T03:22:39;42.83;;;29.97;;
37483;SDS011;23337;52.212;9.926;2024-03-22T03:25:05;42.83;;;28.63;;
37483;SDS011;23337;52.212;9.926;2024-03-22T03:27:31;41.37;;;29.57;;
37483;SDS011;23337;52.212;9.926;2024-03-22T03:29:57;43.50;;;29.43;;
37483;SDS011;23337;52.212;9.926;2024-03-22T03:32:23;40.70;;;27.80;;
37483;SDS011;23337;52.212;9.926;2024-03-22T03:34:50;45.10;;;28.50;;
37483;SDS011;23337;52.212;9.926;2024-03-22T03:37:16;40.27;;;27.87;;
37483;SDS011;23337;52.212;9.926;2024-03-22T03:39:42;42.20;;;27.93;;
37483;SDS011;23337;52.212;9.926;2024-03-22T03:42:08;42.27;;;28.23;;
37483;SDS011;23337;52.212;9.926;2024-03-22T03:44:34;39.20;;;26.63;;
37483;SDS011;23337;52.212;9.926;2024-03-22T03:47:01;39.57;;;26.40;;
37483;SDS011;23337;52.212;9.926;2024-03-22T03:49:27;37.53;;;26.03;;
37483;SDS011;23337;52.212;9.926;2024-03-22T03:51:53;34.90;;;24.83;;
37483;SDS011;23337;52.212;9.926;2024-03-22T03:54:19;40.80;;;26.37;;
37483;SDS011;23337;52.212;9.926;2024-03-22T03:56:45;34.30;;;25.23;;
37483;SDS011;23337;52.212;9.926;2024-03-22T03:59:11;36.70;;;26.07;;
37483;SDS011;23337;52.212;9.926;2024-03-22T04:01:37;34.40;;;25.43;;
37483;SDS011;23337;52.212;9.926;2024-03-22T04:04:03;35.10;;;25.50;;
37483;SDS011;23337;52.212;9.926;2024-03-22T04:06:29;33.20;;;23.60;;
37483;SDS011;23337;52.212;9.926;2024-03-22T04:08:55;34.27;;;23.90;;
37483;SDS011;23337;52.212;9.926;2024-03-22T04:11:22;36.93;;;25.53;;
37483;SDS011;23337;52.212;9.926;2024-03-22T04:13:48;35.97;;;24.67;;
37483;SDS011;23337;52.212;9.926;2024-03-22T04:16:14;35.87;;;25.00;;
37483;SDS011;23337;52.212;9.926;2024-03-22T04:18:40;37.23;;;23.80;;
37483;SDS011;23337;52.212;9.926;2024-03-22T04:21:06;33.53;;;23.40;;
37483;SDS011;23337;52.212;9.926;2024-03-22T04:23:32;35.20;;;23.30;;
37483;SDS011;23337;52.212;9.926;2024-03-22T04:25:58;32.87;;;22.77;;
37483;SDS011;23337;52.212;9.926;2024-03-22T04:28:25;33.87;;;22.73;;
37483;SDS011;23337;52.212;9.926;2024-03-22T04:30:58;36.93;;;25.90;;
37483;SDS011;23337;52.212;9.926;2024-03-22T04:33:24;36.77;;;24.83;;
37483;SDS011;23337;52.212;9.926;2024-03-22T04:35:50;37.30;;;24.63;;
37483;SDS011;23337;52.212;9.926;2024-03-22T04:38:17;38.57;;;25.10;;
37483;SDS011;23337;52.212;9.926;2024-03-22T04:40:43;38.73;;;25.70;;
37483;SDS011;23337;52.212;9.926;2024-03-22T04:43:09;39.60;;;24.40;;
37483;SDS011;23337;52.212;9.926;2024-03-22T04:45:35;34.27;;;23.83;;
37483;SDS011;23337;52.212;9.926;2024-03-22T04:48:01;34.27;;;23.97;;
37483;SDS011;23337;52.212;9.926;2024-03-22T04:50:27;37.97;;;24.67;;
37483;SDS011;23337;52.212;9.926;2024-03-22T04:52:53;37.53;;;23.60;;
37483;SDS011;23337;52.212;9.926;2024-03-22T04:55:19;32.97;;;23.03;;
37483;SDS011;23337;52.212;9.926;2024-03-22T04:57:45;34.67;;;23.30;;
37483;SDS011;23337;52.212;9.926;2024-03-22T05:00:11;37.33;;;23.80;;
37483;SDS011;23337;52.212;9.926;2024-03-22T05:02:37;35.83;;;24.87;;
37483;SDS011;23337;52.212;9.926;2024-03-22T05:05:05;37.97;;;24.23;;
37483;SDS011;23337;52.212;9.926;2024-03-22T05:07:32;37.17;;;25.23;;
37483;SDS011;23337;52.212;9.926;2024-03-22T05:09:58;33.30;;;22.63;;
37483;SDS011;23337;52.212;9.926;2024-03-22T05:12:24;39.63;;;24.13;;
37483;SDS011;23337;52.212;9.926;2024-03-22T05:14:50;37.30;;;24.83;;
37483;SDS011;23337;52.212;9.926;2024-03-22T05:17:16;36.50;;;23.57;;
37483;SDS011;23337;52.212;9.926;2024-03-22T05:19:42;35.83;;;25.20;;
37483;SDS011;23337;52.212;9.926;2024-03-22T05:22:08;42.40;;;25.37;;
37483;SDS011;23337;52.212;9.926;2024-03-22T05:24:34;35.90;;;24.10;;
37483;SDS011;23337;52.212;9.926;2024-03-22T05:27:00;35.87;;;22.83;;
37483;SDS011;23337;52.212;9.926;2024-03-22T05:29:26;35.87;;;23.97;;
37483;SDS011;23337;52.212;9.926;2024-03-22T05:31:52;36.97;;;22.40;;
37483;SDS011;23337;52.212;9.926;2024-03-22T05:34:18;38.43;;;24.13;;
37483;SDS011;23337;52.212;9.926;2024-03-22T05:36:45;37.70;;;24.20;;
37483;SDS011;23337;52.212;9.926;2024-03-22T05:39:11;36.57;;;22.27;;
37483;SDS011;23337;52.212;9.926;2024-03-22T05:41:37;38.83;;;24.73;;
37483;SDS011;23337;52.212;9.926;2024-03-22T05:44:03;35.80;;;23.27;;
37483;SDS011;23337;52.212;9.926;2024-03-22T05:46:29;39.83;;;24.77;;
37483;SDS011;23337;52.212;9.926;2024-03-22T05:48:56;36.27;;;24.50;;
37483;SDS011;23337;52.212;9.926;2024-03-22T05:51:22;34.60;;;24.07;;
37483;SDS011;23337;52.212;9.926;2024-03-22T05:53:48;38.20;;;24.10;;
37483;SDS011;23337;52.212;9.926;2024-03-22T05:56:14;34.47;;;22.87;;
37483;SDS011;23337;52.212;9.926;2024-03-22T05:58:40;36.27;;;22.50;;
37483;SDS011;23337;52.212;9.926;2024-03-22T06:01:06;35.80;;;23.60;;
37483;SDS011;23337;52.212;9.926;2024-03-22T06:03:32;38.00;;;23.27;;
37483;SDS011;23337;52.212;9.926;2024-03-22T06:05:58;34.63;;;23.47;;
37483;SDS011;23337;52.212;9.926;2024-03-22T06:08:28;35.13;;;24.20;;
37483;SDS011;23337;52.212;9.926;2024-03-22T06:10:56;36.23;;;23.83;;
37483;SDS011;23337;52.212;9.926;2024-03-22T06:13:22;35.20;;;22.93;;
37483;SDS011;23337;52.212;9.926;2024-03-22T06:15:48;34.53;;;23.67;;
37483;SDS011;23337;52.212;9.926;2024-03-22T06:18:15;32.70;;;21.73;;
37483;SDS011;23337;52.212;9.926;2024-03-22T06:20:41;40.97;;;24.50;;
37483;SDS011;23337;52.212;9.926;2024-03-22T06:23:10;32.20;;;21.83;;
37483;SDS011;23337;52.212;9.926;2024-03-22T06:25:36;34.93;;;23.07;;
37483;SDS011;23337;52.212;9.926;2024-03-22T06:28:02;33.00;;;21.60;;
37483;SDS011;23337;52.212;9.926;2024-03-22T06:30:28;34.43;;;22.73;;
37483;SDS011;23337;52.212;9.926;2024-03-22T06:32:54;29.57;;;20.23;;
37483;SDS011;23337;52.212;9.926;2024-03-22T06:35:20;31.83;;;22.40;;
37483;SDS011;23337;52.212;9.926;2024-03-22T06:37:46;33.30;;;22.50;;
37483;SDS011;23337;52.212;9.926;2024-03-22T06:40:13;34.70;;;20.57;;
37483;SDS011;23337;52.212;9.926;2024-03-22T06:42:39;31.13;;;20.37;;
37483;SDS011;23337;52.212;9.926;2024-03-22T06:45:05;32.63;;;22.13;;
37483;SDS011;23337;52.212;9.926;2024-03-22T06:47:31;29.60;;;19.77;;
37483;SDS011;23337;52.212;9.926;2024-03-22T06:49:57;33.47;;;22.07;;
37483;SDS011;23337;52.212;9.926;2024-03-22T06:52:23;27.87;;;20.70;;
37483;SDS011;23337;52.212;9.926;2024-03-22T06:54:49;35.77;;;20.10;;
37483;SDS011;23337;52.212;9.926;2024-03-22T06:57:16;29.37;;;19.37;;
37483;SDS011;23337;52.212;9.926;2024-03-22T06:59:42;28.20;;;20.50;;
37483;SDS011;23337;52.212;9.926;2024-03-22T07:02:08;32.43;;;19.87;;
37483;SDS011;23337;52.212;9.926;2024-03-22T07:04:34;29.80;;;20.27;;
37483;SDS011;23337;52.212;9.926;2024-03-22T07:07:00;29.07;;;19.67;;
37483;SDS011;23337;52.212;9.926;2024-03-22T07:09:26;29.67;;;19.43;;
37483;SDS011;23337;52.212;9.926;2024-03-22T07:11:54;25.37;;;18.93;;
37483;SDS011;23337;52.212;9.926;2024-03-22T07:14:20;28.70;;;19.87;;
37483;SDS011;23337;52.212;9.926;2024-03-22T07:16:49;29.73;;;19.67;;
37483;SDS011;23337;52.212;9.926;2024-03-22T07:19:15;31.87;;;20.10;;
37483;SDS011;23337;52.212;9.926;2024-03-22T07:21:41;29.23;;;19.10;;
37483;SDS011;23337;52.212;9.926;2024-03-22T07:24:07;27.00;;;19.47;;
37483;SDS011;23337;52.212;9.926;2024-03-22T07:26:33;28.47;;;20.57;;
37483;SDS011;23337;52.212;9.926;2024-03-22T07:28:59;26.90;;;18.70;;
37483;SDS011;23337;52.212;9.926;2024-03-22T07:31:26;31.23;;;18.60;;
37483;SDS011;23337;52.212;9.926;2024-03-22T07:33:53;27.53;;;18.87;;
37483;SDS011;23337;52.212;9.926;2024-03-22T07:36:19;31.00;;;20.37;;
37483;SDS011;23337;52.212;9.926;2024-03-22T07:38:45;30.13;;;18.80;;
37483;SDS011;23337;52.212;9.926;2024-03-22T07:41:11;27.40;;;18.40;;
37483;SDS011;23337;52.212;9.926;2024-03-22T07:43:37;26.50;;;18.03;;
37483;SDS011;23337;52.212;9.926;2024-03-22T07:46:03;28.10;;;18.37;;
37483;SDS011;23337;52.212;9.926;2024-03-22T07:48:29;28.80;;;18.50;;
37483;SDS011;23337;52.212;9.926;2024-03-22T07:50:58;31.87;;;19.87;;
37483;SDS011;23337;52.212;9.926;2024-03-22T07:53:25;26.50;;;17.73;;
37483;SDS011;23337;52.212;9.926;2024-03-22T07:55:51;27.97;;;18.33;;
37483;SDS011;23337;52.212;9.926;2024-03-22T07:58:17;28.93;;;19.00;;
37483;SDS011;23337;52.212;9.926;2024-03-22T08:00:43;29.77;;;19.00;;
37483;SDS011;23337;52.212;9.926;2024-03-22T08:03:13;29.03;;;19.23;;
37483;SDS011;23337;52.212;9.926;2024-03-22T08:05:39;29.93;;;19.50;;
37483;SDS011;23337;52.212;9.926;2024-03-22T08:08:06;30.63;;;18.67;;
37483;SDS011;23337;52.212;9.926;2024-03-22T08:10:32;26.97;;;18.60;;
37483;SDS011;23337;52.212;9.926;2024-03-22T08:12:58;28.73;;;17.40;;
37483;SDS011;23337;52.212;9.926;2024-03-22T08:15:25;23.20;;;17.20;;
37483;SDS011;23337;52.212;9.926;2024-03-22T08:17:51;26.07;;;17.87;;
37483;SDS011;23337;52.212;9.926;2024-03-22T08:20:17;24.10;;;18.13;;
37483;SDS011;23337;52.212;9.926;2024-03-22T08:22:43;25.83;;;16.53;;
37483;SDS011;23337;52.212;9.926;2024-03-22T08:25:09;23.43;;;18.17;;
37483;SDS011;23337;52.212;9.926;2024-03-22T08:27:35;23.33;;;17.23;;
37483;SDS011;23337;52.212;9.926;2024-03-22T08:30:01;23.73;;;17.77;;
37483;SDS011;23337;52.212;9.926;2024-03-22T08:32:28;25.00;;;16.37;;
37483;SDS011;23337;52.212;9.926;2024-03-22T08:34:54;23.13;;;16.37;;
37483;SDS011;23337;52.212;9.926;2024-03-22T08:37:21;23.33;;;16.63;;
37483;SDS011;23337;52.212;9.926;2024-03-22T08:39:47;24.80;;;17.67;;
37483;SDS011;23337;52.212;9.926;2024-03-22T08:42:13;24.93;;;16.73;;
37483;SDS011;23337;52.212;9.926;2024-03-22T08:44:39;24.70;;;17.30;;
37483;SDS011;23337;52.212;9.926;2024-03-22T08:47:05;22.37;;;16.23;;
37483;SDS011;23337;52.212;9.926;2024-03-22T08:49:31;25.97;;;17.10;;
37483;SDS011;23337;52.212;9.926;2024-03-22T08:51:57;24.07;;;17.37;;
37483;SDS011;23337;52.212;9.926;2024-03-22T08:54:23;23.67;;;16.57;;
37483;SDS011;23337;52.212;9.926;2024-03-22T08:56:49;25.90;;;16.53;;
37483;SDS011;23337;52.212;9.926;2024-03-22T08:59:15;20.53;;;15.67;;
37483;SDS011;23337;52.212;9.926;2024-03-22T09:01:41;25.63;;;17.33;;
37483;SDS011;23337;52.212;9.926;2024-03-22T09:04:07;26.17;;;17.00;;
37483;SDS011;23337;52.212;9.926;2024-03-22T09:06:33;24.33;;;16.63;;
37483;SDS011;23337;52.212;9.926;2024-03-22T09:08:59;22.40;;;16.27;;
37483;SDS011;23337;52.212;9.926;2024-03-22T09:11:25;23.47;;;16.47;;
37483;SDS011;23337;52.212;9.926;2024-03-22T09:13:52;27.83;;;16.63;;
37483;SDS011;23337;52.212;9.926;2024-03-22T09:16:19;21.97;;;16.67;;
37483;SDS011;23337;52.212;9.926;2024-03-22T09:18:45;22.40;;;15.90;;
37483;SDS011;23337;52.212;9.926;2024-03-22T09:21:11;22.00;;;15.97;;
37483;SDS011;23337;52.212;9.926;2024-03-22T09:23:37;25.13;;;16.17;;
37483;SDS011;23337;52.212;9.926;2024-03-22T09:26:03;22.50;;;17.40;;
37483;SDS011;23337;52.212;9.926;2024-03-22T09:28:29;21.67;;;15.20;;
37483;SDS011;23337;52.212;9.926;2024-03-22T09:30:55;21.77;;;16.07;;
37483;SDS011;23337;52.212;9.926;2024-03-22T09:33:21;22.27;;;15.57;;
37483;SDS011;23337;52.212;9.926;2024-03-22T09:35:47;22.23;;;15.33;;
37483;SDS011;23337;52.212;9.926;2024-03-22T09:38:13;19.73;;;13.97;;
37483;SDS011;23337;52.212;9.926;2024-03-22T09:40:40;20.47;;;14.87;;
37483;SDS011;23337;52.212;9.926;2024-03-22T09:43:07;19.90;;;14.27;;
37483;SDS011;23337;52.212;9.926;2024-03-22T09:45:33;20.17;;;14.00;;
37483;SDS011;23337;52.212;9.926;2024-03-22T09:48:00;23.53;;;14.77;;
37483;SDS011;23337;52.212;9.926;2024-03-22T09:50:26;18.27;;;14.47;;
37483;SDS011;23337;52.212;9.926;2024-03-22T09:52:52;22.37;;;14.93;;
37483;SDS011;23337;52.212;9.926;2024-03-22T09:55:23;23.03;;;14.73;;
37483;SDS011;23337;52.212;9.926;2024-03-22T09:57:49;18.60;;;13.70;;
37483;SDS011;23337;52.212;9.926;2024-03-22T10:00:16;20.23;;;13.47;;
37483;SDS011;23337;52.212;9.926;2024-03-22T10:02:45;19.03;;;13.87;;
37483;SDS011;23337;52.212;9.926;2024-03-22T10:05:12;20.43;;;13.73;;
37483;SDS011;23337;52.212;9.926;2024-03-22T10:07:39;18.03;;;13.03;;
37483;SDS011;23337;52.212;9.926;2024-03-22T10:10:05;20.50;;;13.13;;
37483;SDS011;23337;52.212;9.926;2024-03-22T10:12:32;17.33;;;12.10;;
37483;SDS011;23337;52.212;9.926;2024-03-22T10:14:58;20.70;;;13.77;;
37483;SDS011;23337;52.212;9.926;2024-03-22T10:17:26;13.90;;;11.97;;
37483;SDS011;23337;52.212;9.926;2024-03-22T10:19:52;17.90;;;12.80;;
37483;SDS011;23337;52.212;9.926;2024-03-22T10:22:19;15.90;;;11.33;;
37483;SDS011;23337;52.212;9.926;2024-03-22T10:24:45;14.07;;;11.67;;
37483;SDS011;23337;52.212;9.926;2024-03-22T10:27:11;17.03;;;11.63;;
37483;SDS011;23337;52.212;9.926;2024-03-22T10:29:37;14.97;;;11.27;;
37483;SDS011;23337;52.212;9.926;2024-03-22T10:32:03;15.47;;;11.13;;
37483;SDS011;23337;52.212;9.926;2024-03-22T10:34:29;12.97;;;9.77;;
37483;SDS011;23337;52.212;9.926;2024-03-22T10:36:56;11.90;;;9.73;;
37483;SDS011;23337;52.212;9.926;2024-03-22T10:39:25;12.50;;;9.90;;
37483;SDS011;23337;52.212;9.926;2024-03-22T10:41:52;9.87;;;8.87;;
37483;SDS011;23337;52.212;9.926;2024-03-22T10:44:18;14.17;;;9.53;;
37483;SDS011;23337;52.212;9.926;2024-03-22T10:46:44;12.27;;;8.97;;
37483;SDS011;23337;52.212;9.926;2024-03-22T10:49:17;13.87;;;9.00;;
37483;SDS011;23337;52.212;9.926;2024-03-22T10:51:45;12.33;;;7.80;;
37483;SDS011;23337;52.212;9.926;2024-03-22T10:54:13;11.17;;;8.60;;
37483;SDS011;23337;52.212;9.926;2024-03-22T10:56:40;13.20;;;8.77;;
37483;SDS011;23337;52.212;9.926;2024-03-22T10:59:06;11.60;;;9.07;;
37483;SDS011;23337;52.212;9.926;2024-03-22T11:01:32;10.47;;;8.00;;
37483;SDS011;23337;52.212;9.926;2024-03-22T11:04:03;11.33;;;9.30;;
37483;SDS011;23337;52.212;9.926;2024-03-22T11:06:31;11.73;;;8.67;;
37483;SDS011;23337;52.212;9.926;2024-03-22T11:08:59;11.80;;;9.20;;
37483;SDS011;23337;52.212;9.926;2024-03-22T11:11:25;10.80;;;8.57;;
37483;SDS011;23337;52.212;9.926;2024-03-22T11:13:54;13.00;;;9.40;;
37483;SDS011;23337;52.212;9.926;2024-03-22T11:16:21;12.93;;;10.00;;
37483;SDS011;23337;52.212;9.926;2024-03-22T11:18:47;8.97;;;7.67;;
37483;SDS011;23337;52.212;9.926;2024-03-22T11:21:16;14.13;;;8.37;;
37483;SDS011;23337;52.212;9.926;2024-03-22T11:23:44;16.17;;;9.10;;
37483;SDS011;23337;52.212;9.926;2024-03-22T11:26:11;10.17;;;7.97;;
37483;SDS011;23337;52.212;9.926;2024-03-22T11:28:37;19.40;;;13.97;;
37483;SDS011;23337;52.212;9.926;2024-03-22T11:31:03;13.73;;;9.90;;
37483;SDS011;23337;52.212;9.926;2024-03-22T11:33:32;12.67;;;9.40;;
37483;SDS011;23337;52.212;9.926;2024-03-22T11:35:59;11.03;;;9.73;;
37483;SDS011;23337;52.212;9.926;2024-03-22T11:38:26;13.37;;;10.43;;
37483;SDS011;23337;52.212;9.926;2024-03-22T11:40:55;11.70;;;9.57;;
37483;SDS011;23337;52.212;9.926;2024-03-22T11:43:22;13.47;;;9.10;;
37483;SDS011;23337;52.212;9.926;2024-03-22T11:45:49;12.40;;;9.73;;
37483;SDS011;23337;52.212;9.926;2024-03-22T11:48:15;13.37;;;9.33;;
37483;SDS011;23337;52.212;9.926;2024-03-22T11:50:42;12.80;;;9.53;;
37483;SDS011;23337;52.212;9.926;2024-03-22T11:53:08;11.60;;;10.20;;
37483;SDS011;23337;52.212;9.926;2024-03-22T11:55:35;12.33;;;10.33;;
37483;SDS011;23337;52.212;9.926;2024-03-22T11:58:01;12.37;;;9.90;;
37483;SDS011;23337;52.212;9.926;2024-03-22T12:00:27;11.37;;;9.47;;
37483;SDS011;23337;52.212;9.926;2024-03-22T12:02:54;14.53;;;11.03;;
37483;SDS011;23337;52.212;9.926;2024-03-22T12:05:20;11.70;;;8.37;;
37483;SDS011;23337;52.212;9.926;2024-03-22T12:07:46;13.60;;;10.37;;
37483;SDS011;23337;52.212;9.926;2024-03-22T12:10:12;12.50;;;10.60;;
37483;SDS011;23337;52.212;9.926;2024-03-22T12:12:38;14.70;;;11.00;;
37483;SDS011;23337;52.212;9.926;2024-03-22T12:15:04;13.43;;;11.43;;
37483;SDS011;23337;52.212;9.926;2024-03-22T12:17:31;12.43;;;10.07;;
37483;SDS011;23337;52.212;9.926;2024-03-22T12:19:57;12.40;;;9.57;;
37483;SDS011;23337;52.212;9.926;2024-03-22T12:22:23;11.87;;;10.27;;
37483;SDS011;23337;52.212;9.926;2024-03-22T12:24:50;11.70;;;10.50;;
37483;SDS011;23337;52.212;9.926;2024-03-22T12:27:16;13.32;;;10.75;;
37483;SDS011;23337;52.212;9.926;2024-03-22T12:29:42;11.47;;;10.10;;
37483;SDS011;23337;52.212;9.926;2024-03-22T12:32:08;13.60;;;10.63;;
37483;SDS011;23337;52.212;9.926;2024-03-22T12:34:35;16.07;;;10.70;;
37483;SDS011;23337;52.212;9.926;2024-03-22T12:37:01;12.07;;;10.70;;
37483;SDS011;23337;52.212;9.926;2024-03-22T12:39:27;14.87;;;11.00;;
37483;SDS011;23337;52.212;9.926;2024-03-22T12:41:53;11.43;;;10.23;;
37483;SDS011;23337;52.212;9.926;2024-03-22T12:44:20;12.87;;;10.10;;
37483;SDS011;23337;52.212;9.926;2024-03-22T12:46:46;15.03;;;10.93;;
37483;SDS011;23337;52.212;9.926;2024-03-22T12:49:12;15.10;;;11.40;;
37483;SDS011;23337;52.212;9.926;2024-03-22T12:51:38;14.37;;;11.30;;
37483;SDS011;23337;52.212;9.926;2024-03-22T12:54:04;14.50;;;11.33;;
37483;SDS011;23337;52.212;9.926;2024-03-22T12:56:31;14.93;;;11.80;;
37483;SDS011;23337;52.212;9.926;2024-03-22T12:58:58;13.60;;;12.07;;
37483;SDS011;23337;52.212;9.926;2024-03-22T13:01:24;16.80;;;12.13;;
37483;SDS011;23337;52.212;9.926;2024-03-22T13:03:50;17.40;;;12.37;;
37483;SDS011;23337;52.212;9.926;2024-03-22T13:06:15;14.70;;;12.60;;
37483;SDS011;23337;52.212;9.926;2024-03-22T13:08:41;17.60;;;13.73;;
37483;SDS011;23337;52.212;9.926;2024-03-22T13:11:07;15.97;;;14.27;;
37483;SDS011;23337;52.212;9.926;2024-03-22T13:13:34;16.87;;;14.47;;
37483;SDS011;23337;52.212;9.926;2024-03-22T13:16:00;18.20;;;16.17;;
37483;SDS011;23337;52.212;9.926;2024-03-22T13:18:27;17.27;;;15.50;;
37483;SDS011;23337;52.212;9.926;2024-03-22T13:20:54;18.77;;;16.77;;
37483;SDS011;23337;52.212;9.926;2024-03-22T13:23:20;21.33;;;18.10;;
37483;SDS011;23337;52.212;9.926;2024-03-22T13:25:46;20.30;;;17.13;;
37483;SDS011;23337;52.212;9.926;2024-03-22T13:28:12;20.10;;;17.70;;
37483;SDS011;23337;52.212;9.926;2024-03-22T13:30:38;21.40;;;17.57;;
37483;SDS011;23337;52.212;9.926;2024-03-22T13:33:05;21.17;;;18.17;;
37483;SDS011;23337;52.212;9.926;2024-03-22T13:35:33;21.87;;;19.33;;
37483;SDS011;23337;52.212;9.926;2024-03-22T13:37:59;20.93;;;17.87;;
37483;SDS011;23337;52.212;9.926;2024-03-22T13:40:25;21.37;;;18.47;;
37483;SDS011;23337;52.212;9.926;2024-03-22T13:42:55;21.60;;;18.57;;
37483;SDS011;23337;52.212;9.926;2024-03-22T13:45:21;22.87;;;17.90;;
37483;SDS011;23337;52.212;9.926;2024-03-22T13:47:47;21.23;;;17.97;;
37483;SDS011;23337;52.212;9.926;2024-03-22T13:50:13;20.27;;;17.73;;
37483;SDS011;23337;52.212;9.926;2024-03-22T13:52:39;22.50;;;19.07;;
37483;SDS011;23337;52.212;9.926;2024-03-22T13:55:05;21.80;;;18.27;;
37483;SDS011;23337;52.212;9.926;2024-03-22T13:57:31;20.10;;;17.40;;
37483;SDS011;23337;52.212;9.926;2024-03-22T13:59:58;19.30;;;17.27;;
37483;SDS011;23337;52.212;9.926;2024-03-22T14:02:24;18.80;;;16.80;;
37483;SDS011;23337;52.212;9.926;2024-03-22T14:04:50;22.50;;;18.93;;
37483;SDS011;23337;52.212;9.926;2024-03-22T14:07:17;20.23;;;17.77;;
37483;SDS011;23337;52.212;9.926;2024-03-22T14:09:43;19.03;;;17.13;;
37483;SDS011;23337;52.212;9.926;2024-03-22T14:12:10;19.30;;;16.80;;
37483;SDS011;23337;52.212;9.926;2024-03-22T14:14:36;20.33;;;18.20;;
37483;SDS011;23337;52.212;9.926;2024-03-22T14:17:02;24.23;;;18.50;;